createdAt,value
2022-08-16T00:02:39.691Z,99951.91
2022-08-16T00:05:14.283Z,99949.13
2022-08-16T00:07:42.994Z,99946.44
2022-08-16T00:10:20.706Z,99939.50
2022-08-16T00:12:50.091Z,99937.75
2022-08-16T00:15:51.371Z,99922.91
2022-08-16T00:18:17.636Z,99925.09
2022-08-16T00:20:48.267Z,99931.34
2022-08-16T00:23:18.956Z,99898.38
2022-08-16T00:26:36.291Z,99931.69
2022-08-16T00:28:41.590Z,99918.00
2022-08-16T00:31:14.184Z,99926.41
2022-08-16T00:33:43.047Z,99914.78
2022-08-16T00:36:18.729Z,99937.84
2022-08-16T00:38:49.477Z,99932.28
2022-08-16T00:41:19.329Z,99938.00
2022-08-16T00:43:50.538Z,99944.75
2022-08-16T00:46:33.931Z,99947.41
2022-08-16T00:49:06.491Z,99947.53
2022-08-16T00:51:38.592Z,99941.69
2022-08-16T00:54:07.584Z,99940.16
2022-08-16T00:57:00.066Z,99953.16
2022-08-16T00:59:33.016Z,99945.34
2022-08-16T01:02:30.815Z,99941.13
2022-08-16T01:05:09.095Z,99941.88
2022-08-16T01:07:51.823Z,99947.03
2022-08-16T01:10:32.293Z,99948.75
2022-08-16T01:13:08.368Z,99942.72
2022-08-16T01:15:45.541Z,99945.19
2022-08-16T01:18:40.659Z,99943.44
2022-08-16T01:21:22.799Z,99945.94
2022-08-16T01:24:04.801Z,99910.13
2022-08-16T01:26:57.555Z,99941.47
2022-08-16T01:29:58.409Z,99952.78
2022-08-16T01:32:34.217Z,99951.84
2022-08-16T01:35:17.450Z,99955.25
2022-08-16T01:37:53.187Z,99962.00
2022-08-16T01:40:31.354Z,99973.78
2022-08-16T01:43:06.231Z,99981.31
2022-08-16T01:45:41.502Z,99976.03
2022-08-16T01:48:19.729Z,99979.16
2022-08-16T01:51:09.679Z,99980.53
2022-08-16T01:53:42.117Z,99982.09
2022-08-16T01:56:32.654Z,99982.97
2022-08-16T01:59:06.068Z,99983.84
2022-08-16T02:01:37.126Z,99979.53
2022-08-16T02:04:13.173Z,99988.53
2022-08-16T02:07:11.292Z,99989.97
2022-08-16T02:09:41.208Z,99989.59
2022-08-16T02:12:39.738Z,99988.41
2022-08-16T02:15:09.106Z,99996.53
2022-08-16T02:17:52.680Z,99991.31
2022-08-16T02:20:26.466Z,99987.72
2022-08-16T02:25:56.396Z,99991.13
2022-08-16T02:28:29.293Z,100000.03
2022-08-16T02:31:01.298Z,99999.25
2022-08-16T02:33:43.560Z,100001.72
2022-08-16T02:36:47.236Z,99997.09
2022-08-16T02:39:14.726Z,99997.69
2022-08-16T02:41:45.939Z,99988.16
2022-08-16T02:44:26.851Z,99998.16
2022-08-16T02:46:56.856Z,100001.84
2022-08-16T02:50:52.176Z,100001.09
2022-08-16T02:52:24.687Z,100001.66
2022-08-16T02:54:58.412Z,100002.66
2022-08-16T02:57:27.606Z,99993.97
2022-08-16T03:00:34.553Z,100002.41
2022-08-16T03:03:04.134Z,100002.91
2022-08-16T03:05:52.527Z,100006.84
2022-08-16T03:08:50.214Z,100000.69
2022-08-16T03:11:22.050Z,99970.22
2022-08-16T03:13:56.499Z,99994.81
2022-08-16T03:16:37.793Z,99993.00
2022-08-16T03:19:23.476Z,99987.81
2022-08-16T03:21:51.930Z,99980.88
2022-08-16T03:24:29.019Z,99982.53
2022-08-16T03:26:59.704Z,99985.09
2022-08-16T03:29:40.305Z,99982.75
2022-08-16T03:32:25.160Z,99990.28
2022-08-16T03:34:57.203Z,99979.00
2022-08-16T03:37:32.661Z,99993.31
2022-08-16T03:40:32.909Z,99992.22
2022-08-16T03:43:23.602Z,99986.00
2022-08-16T03:46:47.259Z,99979.81
2022-08-16T03:49:22.443Z,99979.81
2022-08-16T03:51:54.891Z,99981.50
2022-08-16T03:54:30.641Z,99983.06
2022-08-16T03:57:15.733Z,99982.19
2022-08-16T03:59:50.973Z,99988.38
2022-08-16T04:02:22.399Z,99990.00
2022-08-16T04:05:00.701Z,99997.66
2022-08-16T04:07:33.363Z,99994.16
2022-08-16T04:10:36.329Z,100000.06
2022-08-16T04:13:04.461Z,100005.03
2022-08-16T04:15:38.300Z,100007.53
2022-08-16T04:18:18.036Z,100011.16
2022-08-16T04:21:07.553Z,100014.78
2022-08-16T04:23:36.503Z,100012.19
2022-08-16T04:26:17.030Z,100012.22
2022-08-16T04:29:15.283Z,99997.28
2022-08-16T04:31:56.284Z,100018.28
2022-08-16T04:34:32.502Z,100020.19
2022-08-16T04:37:08.108Z,99994.44
2022-08-16T04:42:40.384Z,100016.72
2022-08-16T04:45:13.661Z,100021.91
2022-08-16T04:47:46.890Z,100026.09
2022-08-16T04:50:31.753Z,100032.66
2022-08-16T04:53:12.579Z,100021.16
2022-08-16T04:55:53.732Z,100031.66
2022-08-16T04:58:44.782Z,100026.66
2022-08-16T05:01:15.530Z,100031.34
2022-08-16T05:04:00.569Z,100034.97
2022-08-16T05:06:44.666Z,100032.56
2022-08-16T05:09:25.404Z,100036.03
2022-08-16T05:12:18.061Z,100037.78
2022-08-16T05:15:02.019Z,100042.38
2022-08-16T05:17:32.624Z,100036.66
2022-08-16T05:20:39.367Z,100040.25
2022-08-16T05:22:53.122Z,100042.00
2022-08-16T05:25:23.754Z,100047.94
2022-08-16T05:28:11.828Z,100038.44
2022-08-16T05:30:44.189Z,100048.13
2022-08-16T05:33:21.117Z,100050.09
2022-08-16T05:35:55.733Z,100046.41
2022-08-16T05:38:40.719Z,100055.78
2022-08-16T05:41:44.602Z,100055.28
2022-08-16T05:44:23.804Z,100051.25
2022-08-16T05:47:00.223Z,100050.25
2022-08-16T05:49:39.920Z,100060.56
2022-08-16T05:52:13.640Z,100061.91
2022-08-16T05:55:01.011Z,100062.16
2022-08-16T05:58:04.462Z,100064.56
2022-08-16T06:00:34.924Z,100064.94
2022-08-16T06:03:04.858Z,100074.91
2022-08-16T06:06:01.863Z,100061.16
2022-08-16T06:08:44.772Z,100071.03
2022-08-16T06:11:19.082Z,100070.63
2022-08-16T06:13:55.931Z,100074.03
2022-08-16T06:17:06.091Z,100076.75
2022-08-16T06:19:40.469Z,100082.59
2022-08-16T06:25:02.094Z,100083.44
2022-08-16T06:27:39.541Z,100082.19
2022-08-16T06:30:13.447Z,100079.91
2022-08-16T06:32:56.730Z,100086.38
2022-08-16T06:35:41.691Z,100060.94
2022-08-16T06:38:32.647Z,100087.66
2022-08-16T06:41:06.704Z,100094.22
2022-08-16T06:43:42.333Z,100094.00
2022-08-16T06:46:31.915Z,100104.28
2022-08-16T06:49:23.352Z,100102.03
2022-08-16T06:52:58.491Z,100111.69
2022-08-16T06:55:29.859Z,100104.31
2022-08-16T06:58:21.898Z,100088.47
2022-08-16T07:01:09.936Z,100113.44
2022-08-16T07:04:12.282Z,100113.81
2022-08-16T07:06:43.906Z,100117.31
2022-08-16T07:09:15.986Z,100105.06
2022-08-16T07:11:52.289Z,100122.50
2022-08-16T07:14:43.186Z,100120.72
2022-08-16T07:17:18.289Z,100109.97
2022-08-16T07:20:02.727Z,100119.50
2022-08-16T07:22:52.843Z,100118.41
2022-08-16T07:25:53.050Z,100120.81
2022-08-16T07:28:28.285Z,100116.34
2022-08-16T07:30:57.535Z,100129.41
2022-08-16T07:33:51.766Z,100106.69
2022-08-16T07:36:26.552Z,100128.28
2022-08-16T07:39:10.085Z,100135.78
2022-08-16T07:41:44.781Z,100131.47
2022-08-16T07:44:18.724Z,100135.94
2022-08-16T07:46:55.609Z,100130.91
2022-08-16T07:49:53.271Z,100126.63
2022-08-16T07:52:57.013Z,100133.78
2022-08-16T07:55:45.986Z,100135.47
2022-08-16T07:58:34.444Z,100129.47
2022-08-16T08:01:16.483Z,100132.22
2022-08-16T08:03:54.373Z,100136.47
2022-08-16T08:06:30.113Z,100138.91
2022-08-16T08:09:06.136Z,100138.53
2022-08-16T08:12:00.671Z,100140.84
2022-08-16T08:14:33.227Z,100140.47
2022-08-16T08:17:08.695Z,100129.91
2022-08-16T08:22:30.727Z,100135.28
2022-08-16T08:25:18.312Z,100092.34
2022-08-16T08:27:51.718Z,100136.97
2022-08-16T08:30:51.277Z,100144.13
2022-08-16T08:33:17.906Z,100136.63
2022-08-16T08:35:48.904Z,100148.72
2022-08-16T08:38:43.660Z,100147.19
2022-08-16T08:41:10.500Z,100146.50
2022-08-16T08:43:43.003Z,100148.41
2022-08-16T08:46:18.356Z,100147.44
2022-08-16T08:48:59.529Z,100149.41
2022-08-16T08:51:36.942Z,100146.34
2022-08-16T08:54:10.073Z,100139.59
2022-08-16T08:56:50.428Z,100155.47
2022-08-16T08:59:40.673Z,100150.31
2022-08-16T09:02:16.598Z,100141.72
2022-08-16T09:04:53.025Z,100162.75
2022-08-16T09:07:27.081Z,100163.19
2022-08-16T09:10:06.279Z,100156.56
2022-08-16T09:12:37.487Z,100156.03
2022-08-16T09:15:23.892Z,100159.50
2022-08-16T09:17:59.831Z,100154.34
2022-08-16T09:20:58.748Z,100157.97
2022-08-16T09:23:27.965Z,100144.91
2022-08-16T09:26:01.379Z,100155.41
2022-08-16T09:29:16.687Z,100165.91
2022-08-16T09:31:39.186Z,100164.38
2022-08-16T09:34:11.192Z,100161.56
2022-08-16T09:36:45.032Z,100160.00
2022-08-16T09:39:16.072Z,100161.13
2022-08-16T09:41:53.155Z,100154.53
2022-08-16T09:45:09.459Z,100159.13
2022-08-16T09:47:23.358Z,100161.75
2022-08-16T09:49:53.159Z,100154.97
2022-08-16T09:52:40.484Z,100161.78
2022-08-16T09:55:12.565Z,100161.91
2022-08-16T09:57:42.649Z,100156.13
2022-08-16T10:00:44.489Z,100152.84
2022-08-16T10:03:33.118Z,100159.97
2022-08-16T10:06:03.031Z,100138.59
2022-08-16T10:09:05.045Z,100151.09
2022-08-16T10:11:53.064Z,100147.97
2022-08-16T10:14:35.328Z,100150.59
2022-08-16T10:17:06.204Z,100149.81
2022-08-16T10:19:35.699Z,100155.19
2022-08-16T10:25:08.933Z,100162.56
2022-08-16T10:27:47.112Z,100168.66
2022-08-16T10:30:29.719Z,100160.19
2022-08-16T10:33:06.797Z,100163.03
2022-08-16T10:35:54.995Z,100157.75
2022-08-16T10:41:15.978Z,100149.47
2022-08-16T10:43:45.182Z,100162.53
2022-08-16T10:46:33.928Z,100164.22
2022-08-16T10:49:11.658Z,100163.50
2022-08-16T10:52:01.632Z,100161.00
2022-08-16T10:54:58.614Z,100161.88
2022-08-16T10:57:24.590Z,100153.94
2022-08-16T10:59:57.837Z,100157.25
2022-08-16T11:02:59.696Z,100159.13
2022-08-16T11:05:18.012Z,100166.06
2022-08-16T11:08:00.285Z,100159.53
2022-08-16T11:19:23.562Z,100160.28
2022-08-16T11:24:44.901Z,100163.19
2022-08-16T11:27:20.073Z,100168.84
2022-08-16T11:29:52.161Z,100162.44
2022-08-16T11:32:22.730Z,100161.94
2022-08-16T11:35:15.816Z,100160.38
2022-08-16T11:40:52.335Z,100161.06
2022-08-16T11:43:23.667Z,100173.13
2022-08-16T11:46:43.724Z,100170.31
2022-08-16T11:48:58.398Z,100169.09
2022-08-16T11:51:28.711Z,100180.84
2022-08-16T11:54:21.739Z,100169.63
2022-08-16T11:57:00.930Z,100169.59
2022-08-16T11:59:32.751Z,100173.22
2022-08-16T12:02:30.729Z,100174.28
2022-08-16T12:04:54.571Z,100177.13
2022-08-16T12:07:24.175Z,100176.13
2022-08-16T12:10:01.334Z,100174.16
2022-08-16T12:12:40.657Z,100177.38
2022-08-16T12:15:14.155Z,100179.81
2022-08-16T12:17:43.915Z,100164.84
2022-08-16T12:20:18.933Z,100179.38
2022-08-16T12:22:54.215Z,100174.97
2022-08-16T12:25:27.370Z,100163.47
2022-08-16T12:28:07.558Z,100157.22
2022-08-16T12:30:42.339Z,100178.91
2022-08-16T12:33:25.653Z,100171.66
2022-08-16T12:35:54.319Z,100174.56
2022-08-16T12:38:41.072Z,100168.75
2022-08-16T12:41:24.302Z,100176.94
2022-08-16T12:44:01.372Z,100175.28
2022-08-16T12:46:35.898Z,100177.91
2022-08-16T12:49:05.786Z,100175.41
2022-08-16T12:51:58.400Z,100172.25
2022-08-16T12:54:27.486Z,100158.63
2022-08-16T12:56:57.825Z,100176.13
2022-08-16T12:59:30.965Z,100167.63
2022-08-16T13:02:01.472Z,100161.66
2022-08-16T13:04:33.354Z,100158.34
2022-08-16T13:07:06.104Z,100162.75
2022-08-16T13:09:48.874Z,100167.06
2022-08-16T13:12:23.758Z,100170.56
2022-08-16T13:14:56.973Z,100169.75
2022-08-16T13:17:29.897Z,100148.09
2022-08-16T13:20:12.508Z,100162.94
2022-08-16T13:22:48.967Z,100169.91
2022-08-16T13:25:21.437Z,100162.13
2022-08-16T13:28:03.339Z,100145.63
2022-08-16T13:30:50.480Z,100170.78
2022-08-16T13:33:29.575Z,100163.78
2022-08-16T13:36:02.017Z,100175.88
2022-08-16T13:38:36.965Z,100165.50
2022-08-16T13:41:18.676Z,100155.94
2022-08-16T13:43:57.341Z,100164.69
2022-08-16T13:46:32.058Z,100167.34
2022-08-16T13:49:00.805Z,100160.41
2022-08-16T13:51:32.118Z,100144.81
2022-08-16T13:54:04.389Z,100150.00
2022-08-16T13:56:37.394Z,100154.34
2022-08-16T13:59:19.161Z,100140.44
2022-08-16T14:01:55.062Z,100141.34
2022-08-16T14:04:36.511Z,100147.38
2022-08-16T14:07:08.164Z,100158.69
2022-08-16T14:09:39.981Z,100149.06
2022-08-16T14:12:19.200Z,100160.25
2022-08-16T14:14:57.295Z,100158.38
2022-08-16T14:18:16.055Z,100161.69
2022-08-16T14:20:20.621Z,100162.47
2022-08-16T14:22:52.530Z,100159.97
2022-08-16T14:25:24.445Z,100156.63
2022-08-16T14:27:54.550Z,100158.38
2022-08-16T14:30:25.017Z,100164.56
2022-08-16T14:33:04.319Z,100161.03
2022-08-16T14:35:49.004Z,100160.84
2022-08-16T14:38:23.789Z,100158.19
2022-08-16T14:40:55.892Z,100157.31
2022-08-16T14:43:30.873Z,100150.47
2022-08-16T14:45:59.182Z,100160.09
2022-08-16T14:48:31.026Z,100141.91
2022-08-16T14:50:59.009Z,100153.19
2022-08-16T14:53:28.135Z,100153.03
2022-08-16T14:55:57.172Z,100146.84
2022-08-16T14:58:36.864Z,100145.13
2022-08-16T15:01:09.757Z,100141.72
2022-08-16T15:03:42.399Z,100140.00
2022-08-16T15:06:16.365Z,100145.97
2022-08-16T15:08:47.331Z,100151.78
2022-08-16T15:11:18.078Z,100136.88
2022-08-16T15:13:49.459Z,100144.66
2022-08-16T15:16:31.991Z,100130.09
2022-08-16T15:19:03.357Z,100148.53
2022-08-16T15:21:39.322Z,100145.03
2022-08-16T15:24:16.742Z,100150.97
2022-08-16T15:26:55.731Z,100146.59
2022-08-16T15:29:24.187Z,100150.16
2022-08-16T15:31:57.728Z,100150.97
2022-08-16T15:34:30.548Z,100150.91
2022-08-16T15:37:01.420Z,100149.97
2022-08-16T15:39:39.374Z,100150.97
2022-08-16T15:42:28.695Z,100150.22
2022-08-16T15:44:58.965Z,100153.69
2022-08-16T15:47:34.687Z,100157.09
2022-08-16T15:50:08.471Z,100164.16
2022-08-16T15:52:43.076Z,100159.78
2022-08-16T15:55:34.808Z,100161.59
2022-08-16T15:58:34.995Z,100158.09
2022-08-16T16:00:58.943Z,100164.16
2022-08-16T16:03:29.963Z,100159.00
2022-08-16T16:06:08.456Z,100139.09
2022-08-16T16:08:36.348Z,100158.03
2022-08-16T16:11:09.626Z,100164.81
2022-08-16T16:13:37.894Z,100159.47
2022-08-16T16:16:16.581Z,100168.97
2022-08-16T16:19:06.735Z,100168.25
2022-08-16T16:21:39.365Z,100162.34
2022-08-16T16:24:21.612Z,100153.75
2022-08-16T16:27:08.577Z,100157.28
2022-08-16T16:29:37.199Z,100164.19
2022-08-16T16:32:11.314Z,100163.34
2022-08-16T16:34:43.151Z,100168.59
2022-08-16T16:37:18.159Z,100165.13
2022-08-16T16:40:01.337Z,100165.91
2022-08-16T16:42:44.672Z,100162.31
2022-08-16T16:45:14.456Z,100161.25
2022-08-16T16:47:42.947Z,100160.22
2022-08-16T16:50:16.184Z,100159.09
2022-08-16T16:52:46.722Z,100162.34
2022-08-16T16:55:23.156Z,100157.81
2022-08-16T16:58:07.596Z,100175.06
2022-08-16T17:00:51.606Z,100166.34
2022-08-16T17:03:26.272Z,100162.69
2022-08-16T17:06:08.867Z,100142.59
2022-08-16T17:08:41.917Z,100163.25
2022-08-16T17:11:10.254Z,100173.63
2022-08-16T17:13:39.319Z,100172.78
2022-08-16T17:16:18.628Z,100168.41
2022-08-16T17:19:17.055Z,100172.69
2022-08-16T17:21:37.145Z,100180.38
2022-08-16T17:24:17.841Z,100178.59
2022-08-16T17:26:49.124Z,100188.91
2022-08-16T17:29:32.902Z,100185.28
2022-08-16T17:32:34.267Z,100193.00
2022-08-16T17:35:00.339Z,100195.50
2022-08-16T17:37:42.282Z,100199.81
2022-08-16T17:40:40.848Z,100199.69
2022-08-16T17:43:13.475Z,100199.50
2022-08-16T17:45:44.653Z,100205.47
2022-08-16T17:48:13.236Z,100208.00
2022-08-16T17:50:42.228Z,100194.88
2022-08-16T17:53:35.540Z,100211.28
2022-08-16T17:56:12.935Z,100204.31
2022-08-16T17:58:41.028Z,100218.09
2022-08-16T18:01:13.997Z,100218.81
2022-08-16T18:04:06.937Z,100226.47
2022-08-16T18:06:30.832Z,100228.91
2022-08-16T18:09:26.256Z,100230.53
2022-08-16T18:12:00.148Z,100234.75
2022-08-16T18:14:51.042Z,100236.41
2022-08-16T18:17:19.462Z,100230.25
2022-08-16T18:19:47.516Z,100239.66
2022-08-16T18:22:30.197Z,100231.78
2022-08-16T18:25:02.608Z,100234.28
2022-08-16T18:27:40.990Z,100235.97
2022-08-16T18:30:18.951Z,100236.78
2022-08-16T18:32:52.893Z,100236.63
2022-08-16T18:35:21.855Z,100241.63
2022-08-16T18:38:02.014Z,100240.66
2022-08-16T18:40:30.730Z,100244.78
2022-08-16T18:43:03.095Z,100243.75
2022-08-16T18:45:56.600Z,100250.50
2022-08-16T18:48:27.395Z,100244.31
2022-08-16T18:51:14.669Z,100246.72
2022-08-16T18:54:03.675Z,100252.50
2022-08-16T18:56:56.129Z,100256.66
2022-08-16T18:59:21.739Z,100252.22
2022-08-16T19:02:56.780Z,100258.19
2022-08-16T19:05:15.179Z,100266.78
2022-08-16T19:08:08.986Z,100270.94
2022-08-16T19:10:40.805Z,100267.31
2022-08-16T19:13:17.568Z,100261.06
2022-08-16T19:15:48.493Z,100282.66
2022-08-16T19:18:16.518Z,100280.81
2022-08-16T19:20:45.696Z,100284.16
2022-08-16T19:23:19.659Z,100281.44
2022-08-16T19:26:02.948Z,100284.84
2022-08-16T19:28:51.365Z,100291.59
2022-08-16T19:31:31.609Z,100294.16
2022-08-16T19:34:03.911Z,100296.69
2022-08-16T19:36:35.882Z,100300.00
2022-08-16T19:39:09.038Z,100311.94
2022-08-16T19:41:43.743Z,100319.50
2022-08-16T19:44:12.049Z,100321.94
2022-08-16T19:46:44.827Z,100315.00
2022-08-16T19:49:16.066Z,100326.06
2022-08-16T19:51:51.553Z,100322.56
2022-08-16T19:54:19.549Z,100321.47
2022-08-16T19:56:50.524Z,100315.19
2022-08-16T19:59:20.488Z,100319.44
2022-08-16T20:01:54.026Z,100327.00
2022-08-16T20:04:22.774Z,100326.84
2022-08-16T20:06:52.338Z,100314.53
2022-08-16T20:09:21.208Z,100309.16
2022-08-16T20:11:52.031Z,100318.53
2022-08-16T20:14:25.274Z,100310.34
2022-08-16T20:16:57.083Z,100331.09
2022-08-16T20:19:27.135Z,100329.25
2022-08-16T20:21:56.424Z,100328.13
2022-08-16T20:24:40.158Z,100326.28
2022-08-16T20:27:09.814Z,100320.81
2022-08-16T20:29:39.822Z,100333.59
2022-08-16T20:32:12.546Z,100321.31
2022-08-16T20:34:42.068Z,100331.47
2022-08-16T20:37:12.680Z,100328.69
2022-08-16T20:39:44.075Z,100336.31
2022-08-16T20:42:13.455Z,100334.56
2022-08-16T20:44:42.533Z,100337.97
2022-08-16T20:47:11.890Z,100352.53
2022-08-16T20:49:39.817Z,100347.34
2022-08-16T20:52:09.092Z,100347.28
2022-08-16T20:54:38.233Z,100353.22
2022-08-16T20:57:06.985Z,100355.78
2022-08-16T20:59:35.163Z,100357.47
2022-08-16T21:02:03.641Z,100360.81
2022-08-16T21:04:33.315Z,100365.09
2022-08-16T21:07:01.573Z,100366.84
2022-08-16T21:09:33.554Z,100369.34
2022-08-16T21:12:04.107Z,100364.06
2022-08-16T21:14:34.277Z,100361.41
2022-08-16T21:17:03.164Z,100375.16
2022-08-16T21:19:33.219Z,100377.66
2022-08-16T21:22:12.013Z,100378.41
2022-08-16T21:24:40.137Z,100378.31
2022-08-16T21:27:08.373Z,100367.69
2022-08-16T21:29:42.844Z,100380.69
2022-08-16T21:32:12.493Z,100383.13
2022-08-16T21:34:42.862Z,100384.91
2022-08-16T21:37:11.595Z,100381.31
2022-08-16T21:39:44.067Z,100383.88
2022-08-16T21:42:14.693Z,100381.19
2022-08-16T21:44:43.398Z,100383.75
2022-08-16T21:47:11.959Z,100384.47
2022-08-16T21:49:41.296Z,100377.53
2022-08-16T21:52:10.047Z,100373.94
2022-08-16T21:54:56.721Z,100379.09
2022-08-16T21:57:25.195Z,100379.84
2022-08-16T21:59:54.890Z,100377.13
2022-08-16T22:02:25.539Z,100374.63
2022-08-16T22:04:55.897Z,100370.09
2022-08-16T22:07:23.809Z,100381.31
2022-08-16T22:09:52.295Z,100384.59
2022-08-16T22:12:27.663Z,100383.69
2022-08-16T22:14:55.675Z,100392.25
2022-08-16T22:17:23.606Z,100387.00
2022-08-16T22:19:54.696Z,100395.63
2022-08-16T22:22:22.709Z,100391.28
2022-08-16T22:24:50.723Z,100387.75
2022-08-16T22:27:18.694Z,100396.94
2022-08-16T22:29:46.811Z,100393.19
2022-08-16T22:32:15.364Z,100397.31
2022-08-16T22:34:43.572Z,100387.81
2022-08-16T22:37:13.130Z,100388.63
2022-08-16T22:39:41.270Z,100372.81
2022-08-16T22:42:10.789Z,100383.84
2022-08-16T22:44:42.949Z,100384.75
2022-08-16T22:47:14.610Z,100384.78
2022-08-16T22:49:42.827Z,100390.16
2022-08-16T22:52:12.138Z,100391.81
2022-08-16T22:54:48.731Z,100386.19
2022-08-16T22:57:17.254Z,100393.19
2022-08-16T22:59:45.230Z,100392.97
2022-08-16T23:02:13.215Z,100397.16
2022-08-16T23:04:41.187Z,100387.72
2022-08-16T23:07:09.064Z,100386.78
2022-08-16T23:09:38.521Z,100382.16
2022-08-16T23:12:07.342Z,100387.19
2022-08-16T23:14:35.322Z,100396.78
2022-08-16T23:17:03.485Z,100397.47
2022-08-16T23:19:31.617Z,100392.28
2022-08-16T23:22:00.677Z,100390.63
2022-08-16T23:24:28.859Z,100383.97
2022-08-16T23:26:58.251Z,100367.28
2022-08-16T23:29:26.802Z,100383.03
2022-08-16T23:31:57.543Z,100379.56
2022-08-16T23:34:27.789Z,100383.03
2022-08-16T23:36:56.509Z,100370.88
2022-08-16T23:39:25.123Z,100379.44
2022-08-16T23:41:53.207Z,100379.28
2022-08-16T23:44:57.468Z,100377.44
2022-08-16T23:47:11.023Z,100373.94
2022-08-16T23:50:01.155Z,100358.00
2022-08-16T23:52:53.209Z,100369.09
2022-08-16T23:55:17.001Z,100370.66
2022-08-16T23:57:45.522Z,100354.00
